createdAt,value
2018-08-03T00:02:17.379Z,99.90
2018-08-03T00:04:46.279Z,99.90
2018-08-03T00:07:15.178Z,99.90
2018-08-03T00:09:44.059Z,99.90
2018-08-03T00:12:12.969Z,99.90
2018-08-03T00:14:41.852Z,99.90
2018-08-03T00:17:10.731Z,99.90
2018-08-03T00:19:39.827Z,99.90
2018-08-03T00:22:08.734Z,99.90
2018-08-03T00:24:37.606Z,99.90
2018-08-03T00:27:06.498Z,99.90
2018-08-03T00:29:35.375Z,99.90
2018-08-03T00:32:04.282Z,99.90
2018-08-03T00:34:33.167Z,99.90
2018-08-03T00:37:02.064Z,99.90
2018-08-03T00:39:30.954Z,99.90
2018-08-03T00:41:59.860Z,99.90
2018-08-03T00:44:28.734Z,99.90
2018-08-03T00:46:57.619Z,99.90
2018-08-03T00:49:26.516Z,99.90
2018-08-03T00:51:55.410Z,99.90
2018-08-03T00:54:24.293Z,99.90
2018-08-03T00:56:53.207Z,99.90
2018-08-03T00:59:22.149Z,99.90
2018-08-03T01:01:51.051Z,99.90
2018-08-03T01:04:19.952Z,99.90
2018-08-03T01:06:48.879Z,99.90
2018-08-03T01:09:17.766Z,99.90
2018-08-03T01:11:46.690Z,99.90
2018-08-03T01:14:15.579Z,99.90
2018-08-03T01:16:44.491Z,99.90
2018-08-03T01:19:14.282Z,99.90
2018-08-03T01:21:44.423Z,99.90
2018-08-03T01:24:13.325Z,99.90
2018-08-03T01:26:42.275Z,99.90
2018-08-03T01:29:11.170Z,99.90
2018-08-03T01:31:40.082Z,99.90
2018-08-03T01:34:08.966Z,99.90
2018-08-03T01:36:37.882Z,99.90
2018-08-03T01:39:08.022Z,99.90
2018-08-03T01:41:36.985Z,99.90
2018-08-03T01:44:05.986Z,99.90
2018-08-03T01:46:34.918Z,99.90
2018-08-03T01:49:03.822Z,99.90
2018-08-03T01:51:32.725Z,99.90
2018-08-03T01:54:01.692Z,99.90
2018-08-03T01:56:30.615Z,99.90
2018-08-03T01:58:59.527Z,99.90
2018-08-03T02:01:28.637Z,99.90
2018-08-03T02:03:57.543Z,99.90
2018-08-03T02:06:27.510Z,99.90
2018-08-03T02:08:56.422Z,99.90
2018-08-03T02:11:25.372Z,99.90
2018-08-03T02:13:54.282Z,99.90
2018-08-03T02:16:23.200Z,99.90
2018-08-03T02:18:52.105Z,99.90
2018-08-03T02:21:21.036Z,99.90
2018-08-03T02:23:49.941Z,99.90
2018-08-03T02:26:18.838Z,99.90
2018-08-03T02:28:47.735Z,99.90
2018-08-03T02:31:16.660Z,99.90
2018-08-03T02:33:45.543Z,99.90
2018-08-03T02:36:14.415Z,99.90
2018-08-03T02:38:43.306Z,99.90
2018-08-03T02:41:12.191Z,99.90
2018-08-03T02:43:41.076Z,99.90
2018-08-03T02:46:09.958Z,99.90
2018-08-03T02:48:38.848Z,99.90
2018-08-03T02:51:07.759Z,99.90
2018-08-03T02:53:36.661Z,99.90
2018-08-03T02:56:05.558Z,99.90
2018-08-03T02:58:34.454Z,99.90
2018-08-03T03:01:03.374Z,99.90
2018-08-03T03:03:32.264Z,99.90
2018-08-03T03:06:01.147Z,99.90
2018-08-03T03:08:30.050Z,99.90
2018-08-03T03:10:58.947Z,99.90
2018-08-03T03:13:27.834Z,99.90
2018-08-03T03:15:56.743Z,99.90
2018-08-03T03:18:25.625Z,99.90
2018-08-03T03:20:54.603Z,99.90
2018-08-03T03:23:23.538Z,99.90
2018-08-03T03:25:52.455Z,99.90
2018-08-03T03:28:21.349Z,99.90
2018-08-03T03:30:50.232Z,99.90
2018-08-03T03:33:19.159Z,99.90
2018-08-03T03:35:48.000Z,99.90
2018-08-03T03:38:16.916Z,99.90
2018-08-03T03:40:45.905Z,99.90
2018-08-03T03:43:15.563Z,99.90
2018-08-03T03:45:44.534Z,99.90
2018-08-03T03:48:13.429Z,99.90
2018-08-03T03:50:42.340Z,99.90
2018-08-03T03:53:11.258Z,99.90
2018-08-03T03:55:40.134Z,99.90
2018-08-03T03:58:09.482Z,99.90
2018-08-03T04:03:06.962Z,99.90
2018-08-03T04:05:35.849Z,99.90
2018-08-03T04:08:04.810Z,99.90
2018-08-03T04:10:33.699Z,99.90
2018-08-03T04:13:02.594Z,99.90
2018-08-03T04:15:31.482Z,99.90
2018-08-03T04:18:00.382Z,99.90
2018-08-03T04:20:29.285Z,99.90
2018-08-03T04:22:58.202Z,99.90
2018-08-03T04:25:27.110Z,99.90
2018-08-03T04:27:55.989Z,99.90
2018-08-03T04:30:24.877Z,99.90
2018-08-03T04:32:53.774Z,99.90
2018-08-03T04:35:22.654Z,99.90
2018-08-03T04:37:51.620Z,99.90
2018-08-03T04:40:20.536Z,99.90
2018-08-03T04:42:49.476Z,99.90
2018-08-03T04:45:18.365Z,99.90
2018-08-03T04:47:47.274Z,99.90
2018-08-03T04:50:16.165Z,99.90
2018-08-03T04:52:45.099Z,99.90
2018-08-03T04:55:13.981Z,99.90
2018-08-03T04:57:42.861Z,99.90
2018-08-03T05:00:11.769Z,99.90
2018-08-03T05:02:40.749Z,99.90
2018-08-03T05:05:10.164Z,99.90
2018-08-03T05:07:39.442Z,99.90
2018-08-03T05:10:08.434Z,99.90
2018-08-03T05:12:37.631Z,99.90
2018-08-03T05:15:07.360Z,99.90
2018-08-03T05:17:36.314Z,99.90
2018-08-03T05:20:05.443Z,99.90
2018-08-03T05:22:34.346Z,99.90
2018-08-03T05:25:03.294Z,99.90
2018-08-03T05:27:32.805Z,99.90
2018-08-03T05:30:01.915Z,99.90
2018-08-03T05:32:31.614Z,99.90
2018-08-03T05:35:00.502Z,99.90
2018-08-03T05:37:29.391Z,99.90
2018-08-03T05:39:58.288Z,99.90
2018-08-03T05:42:27.543Z,99.90
2018-08-03T05:44:56.436Z,99.90
2018-08-03T05:47:25.309Z,99.90
2018-08-03T05:49:54.220Z,99.90
2018-08-03T05:52:23.293Z,99.90
2018-08-03T05:54:52.121Z,99.90
2018-08-03T05:57:21.082Z,99.90
2018-08-03T05:59:50.148Z,99.90
2018-08-03T06:02:19.241Z,99.90
2018-08-03T06:04:48.101Z,99.90
2018-08-03T06:07:17.004Z,99.90
2018-08-03T06:09:45.922Z,99.90
2018-08-03T06:12:14.824Z,99.90
2018-08-03T06:14:43.716Z,99.90
2018-08-03T06:17:12.599Z,99.90
2018-08-03T06:19:41.494Z,99.90
2018-08-03T06:22:10.402Z,99.90
2018-08-03T06:24:39.296Z,99.90
2018-08-03T06:27:08.267Z,99.90
2018-08-03T06:29:37.177Z,99.90
2018-08-03T06:32:06.090Z,99.90
2018-08-03T06:34:34.983Z,99.90
2018-08-03T06:37:03.899Z,99.90
2018-08-03T06:39:32.779Z,99.90
2018-08-03T06:42:01.669Z,99.90
2018-08-03T06:44:30.574Z,99.90
2018-08-03T06:46:59.482Z,99.90
2018-08-03T06:49:28.454Z,99.90
2018-08-03T06:51:57.373Z,99.90
2018-08-03T06:54:27.208Z,99.90
2018-08-03T06:56:56.087Z,99.90
2018-08-03T06:59:24.992Z,99.90
2018-08-03T07:01:54.558Z,99.90
2018-08-03T07:04:23.634Z,99.90
2018-08-03T07:06:52.690Z,99.90
2018-08-03T07:09:21.574Z,99.90
2018-08-03T07:11:50.472Z,99.90
2018-08-03T07:14:19.357Z,99.90
2018-08-03T07:16:48.249Z,99.90
2018-08-03T07:19:17.138Z,99.90
2018-08-03T07:21:46.023Z,99.90
2018-08-03T07:24:14.914Z,99.90
2018-08-03T07:26:43.801Z,99.90
2018-08-03T07:29:12.686Z,99.90
2018-08-03T07:31:41.605Z,99.90
2018-08-03T07:34:10.455Z,98.70
2018-08-03T07:36:39.335Z,97.10
2018-08-03T07:39:08.635Z,97.30
2018-08-03T07:41:37.543Z,95.80
2018-08-03T07:44:06.418Z,94.60
2018-08-03T07:46:35.306Z,94.10
2018-08-03T07:49:04.212Z,93.50
2018-08-03T07:51:33.106Z,94.20
2018-08-03T07:54:01.982Z,92.70
2018-08-03T07:56:30.930Z,92.00
2018-08-03T07:58:59.817Z,93.00
2018-08-03T08:01:28.730Z,92.70
2018-08-03T08:03:57.615Z,92.50
2018-08-03T08:06:26.495Z,91.40
2018-08-03T08:08:55.370Z,90.80
2018-08-03T08:11:24.273Z,91.10
2018-08-03T08:13:53.154Z,91.10
2018-08-03T08:16:22.061Z,91.10
2018-08-03T08:18:50.939Z,89.20
2018-08-03T08:21:19.835Z,89.50
2018-08-03T08:23:48.746Z,89.20
2018-08-03T08:26:17.638Z,89.00
2018-08-03T08:28:46.514Z,87.50
2018-08-03T08:31:15.402Z,87.40
2018-08-03T08:33:44.283Z,86.20
2018-08-03T08:36:13.175Z,85.20
2018-08-03T08:38:42.043Z,85.40
2018-08-03T08:41:10.946Z,84.30
2018-08-03T08:43:40.134Z,83.00
2018-08-03T08:46:08.990Z,84.50
2018-08-03T08:48:37.854Z,83.00
2018-08-03T08:51:06.847Z,80.50
2018-08-03T08:53:35.731Z,81.10
2018-08-03T08:56:04.624Z,78.00
2018-08-03T08:58:33.498Z,78.10
2018-08-03T09:01:02.490Z,77.10
2018-08-03T09:03:31.606Z,74.80
2018-08-03T09:06:00.474Z,76.70
2018-08-03T09:08:29.351Z,73.60
2018-08-03T09:10:58.498Z,72.80
2018-08-03T09:13:27.641Z,71.30
2018-08-03T09:15:56.541Z,68.00
2018-08-03T09:18:25.431Z,69.40
2018-08-03T09:20:54.338Z,67.80
2018-08-03T09:23:23.250Z,67.40
2018-08-03T09:25:52.159Z,68.80
2018-08-03T09:28:21.166Z,67.70
2018-08-03T09:30:50.061Z,64.70
2018-08-03T09:33:18.935Z,62.20
2018-08-03T09:35:47.831Z,64.70
2018-08-03T09:38:16.718Z,61.70
2018-08-03T09:40:45.630Z,60.70
2018-08-03T09:43:14.519Z,61.60
2018-08-03T09:45:43.395Z,58.60
2018-08-03T09:48:12.278Z,59.90
2018-08-03T09:50:41.165Z,61.80
2018-08-03T09:53:10.067Z,59.50
2018-08-03T09:55:38.967Z,60.50
2018-08-03T09:58:07.904Z,60.40
2018-08-03T10:00:42.453Z,58.30
2018-08-03T10:03:11.370Z,58.00
2018-08-03T10:05:40.242Z,56.40
2018-08-03T10:08:09.134Z,54.30
2018-08-03T10:10:38.023Z,56.70
2018-08-03T10:13:06.928Z,55.00
2018-08-03T10:15:35.853Z,55.90
2018-08-03T10:18:04.694Z,56.20
2018-08-03T10:20:33.570Z,54.30
2018-08-03T10:23:02.473Z,53.00
2018-08-03T10:25:31.359Z,52.70
2018-08-03T10:28:00.266Z,53.90
2018-08-03T10:30:29.143Z,53.40
2018-08-03T10:32:58.039Z,53.40
2018-08-03T10:35:26.910Z,52.50
2018-08-03T10:37:56.050Z,51.70
2018-08-03T10:40:24.947Z,52.70
2018-08-03T10:42:53.893Z,51.20
2018-08-03T10:45:22.718Z,52.60
2018-08-03T10:47:51.614Z,52.70
2018-08-03T10:50:20.498Z,50.80
2018-08-03T10:52:49.403Z,51.90
2018-08-03T10:55:18.278Z,51.80
2018-08-03T10:57:47.163Z,52.30
2018-08-03T11:00:31.787Z,50.90
2018-08-03T11:03:01.092Z,51.10
2018-08-03T11:05:30.285Z,49.70
2018-08-03T11:07:59.166Z,48.70
2018-08-03T11:10:28.047Z,50.00
2018-08-03T11:12:56.931Z,50.60
2018-08-03T11:15:25.820Z,49.40
2018-08-03T11:17:54.709Z,48.80
2018-08-03T11:20:23.582Z,48.70
2018-08-03T11:22:52.482Z,50.70
2018-08-03T11:25:21.370Z,49.70
2018-08-03T11:27:50.330Z,49.50
2018-08-03T11:30:19.211Z,49.90
2018-08-03T11:32:48.138Z,48.40
2018-08-03T11:35:17.096Z,48.90
2018-08-03T11:37:46.027Z,49.80
2018-08-03T11:40:14.897Z,49.00
2018-08-03T11:42:43.799Z,51.40
2018-08-03T11:45:12.771Z,50.00
2018-08-03T11:47:41.666Z,51.70
2018-08-03T11:50:11.106Z,50.40
2018-08-03T11:52:40.319Z,49.20
2018-08-03T11:55:09.257Z,48.40
2018-08-03T11:57:38.137Z,47.90
2018-08-03T12:00:07.097Z,49.00
2018-08-03T12:02:35.992Z,48.80
2018-08-03T12:05:05.094Z,50.00
2018-08-03T12:07:33.971Z,47.80
2018-08-03T12:10:02.871Z,47.50
2018-08-03T12:12:31.811Z,47.50
2018-08-03T12:15:00.643Z,48.20
2018-08-03T12:17:29.517Z,48.00
2018-08-03T12:19:58.399Z,48.10
2018-08-03T12:22:27.318Z,47.50
2018-08-03T12:24:56.202Z,47.40
2018-08-03T12:27:25.083Z,46.40
2018-08-03T12:29:53.958Z,46.80
2018-08-03T12:32:22.860Z,47.00
2018-08-03T12:34:51.811Z,45.30
2018-08-03T12:37:20.684Z,46.20
2018-08-03T12:39:49.569Z,45.90
2018-08-03T12:42:18.463Z,47.10
2018-08-03T12:44:47.358Z,47.20
2018-08-03T12:47:16.234Z,48.80
2018-08-03T12:49:45.141Z,47.60
2018-08-03T12:52:14.015Z,48.00
2018-08-03T12:54:42.916Z,46.10
2018-08-03T12:57:11.770Z,46.40
2018-08-03T12:59:40.826Z,45.60
2018-08-03T13:02:09.574Z,45.70
2018-08-03T13:04:38.451Z,46.90
2018-08-03T13:07:07.720Z,46.10
2018-08-03T13:09:36.561Z,47.10
2018-08-03T13:12:05.451Z,46.80
2018-08-03T13:14:34.415Z,44.90
2018-08-03T13:17:03.338Z,45.50
2018-08-03T13:19:32.221Z,45.10
2018-08-03T13:22:01.123Z,44.40
2018-08-03T13:24:30.008Z,45.60
2018-08-03T13:26:58.889Z,44.30
2018-08-03T13:29:27.873Z,45.00
2018-08-03T13:31:56.713Z,44.90
2018-08-03T13:34:25.595Z,46.70
2018-08-03T13:36:54.494Z,45.50
2018-08-03T13:39:23.389Z,46.90
2018-08-03T13:41:52.268Z,46.90
2018-08-03T13:44:21.174Z,47.00
2018-08-03T13:46:50.054Z,46.60
2018-08-03T13:49:18.946Z,44.70
2018-08-03T13:51:47.836Z,45.20
2018-08-03T13:54:16.762Z,45.30
2018-08-03T13:56:46.070Z,45.90
2018-08-03T13:59:14.986Z,46.90
2018-08-03T14:01:55.377Z,46.40
2018-08-03T14:04:24.324Z,45.90
2018-08-03T14:06:53.186Z,46.70
2018-08-03T14:09:22.094Z,45.80
2018-08-03T14:11:50.965Z,45.50
2018-08-03T14:14:20.035Z,44.50
2018-08-03T14:19:17.485Z,45.90
2018-08-03T14:21:46.387Z,45.40
2018-08-03T14:26:43.823Z,44.50
2018-08-03T14:29:12.687Z,45.10
2018-08-03T14:31:41.716Z,45.00
2018-08-03T14:34:10.461Z,44.90
2018-08-03T14:36:39.360Z,45.40
2018-08-03T14:39:09.267Z,45.60
2018-08-03T14:41:38.779Z,47.40
2018-08-03T14:44:08.386Z,48.10
2018-08-03T14:46:37.994Z,46.30
2018-08-03T14:49:06.895Z,45.40
2018-08-03T14:51:36.274Z,46.00
2018-08-03T14:54:05.250Z,46.70
2018-08-03T14:56:34.414Z,47.70
2018-08-03T14:59:03.296Z,47.70
2018-08-03T15:01:32.190Z,46.00
2018-08-03T15:04:01.126Z,45.90
2018-08-03T15:06:30.022Z,46.50
2018-08-03T15:08:58.898Z,45.60
2018-08-03T15:11:27.812Z,46.60
2018-08-03T15:13:57.159Z,46.40
2018-08-03T15:16:26.035Z,46.40
2018-08-03T15:18:54.910Z,45.60
2018-08-03T15:21:23.806Z,46.40
2018-08-03T15:23:52.823Z,46.00
2018-08-03T15:26:21.709Z,46.20
2018-08-03T15:28:50.684Z,46.20
2018-08-03T15:31:19.562Z,47.10
2018-08-03T15:33:48.435Z,46.10
2018-08-03T15:36:17.359Z,47.00
2018-08-03T15:38:46.267Z,45.50
2018-08-03T15:41:15.202Z,45.90
2018-08-03T15:43:44.095Z,45.60
2018-08-03T15:46:12.993Z,45.80
2018-08-03T15:48:41.871Z,46.40
2018-08-03T15:51:10.758Z,47.10
2018-08-03T15:53:39.645Z,46.20
2018-08-03T15:56:08.534Z,46.10
2018-08-03T15:58:37.455Z,47.50
2018-08-03T16:01:06.309Z,46.60
2018-08-03T16:03:35.198Z,46.40
2018-08-03T16:06:04.350Z,46.20
2018-08-03T16:08:33.230Z,47.00
2018-08-03T16:11:02.143Z,47.80
2018-08-03T16:13:31.018Z,47.30
2018-08-03T16:15:59.902Z,46.40
2018-08-03T16:18:28.807Z,46.60
2018-08-03T16:20:57.694Z,46.30
2018-08-03T16:23:26.602Z,46.10
2018-08-03T16:25:55.482Z,45.90
2018-08-03T16:28:24.370Z,45.50
2018-08-03T16:30:53.328Z,45.70
2018-08-03T16:35:50.786Z,46.20
2018-08-03T16:38:19.683Z,46.80
2018-08-03T16:40:48.566Z,46.70
2018-08-03T16:43:17.474Z,46.80
2018-08-03T16:48:14.904Z,46.50
2018-08-03T16:50:43.795Z,46.30
2018-08-03T16:53:12.674Z,46.90
2018-08-03T16:55:41.587Z,48.40
2018-08-03T16:58:10.825Z,48.00
2018-08-03T17:00:39.714Z,48.70
2018-08-03T17:03:08.615Z,48.70
2018-08-03T17:05:37.503Z,48.90
2018-08-03T17:08:06.414Z,49.20
2018-08-03T17:10:35.379Z,47.30
2018-08-03T17:13:04.184Z,48.70
2018-08-03T17:15:33.068Z,50.50
2018-08-03T17:18:01.950Z,50.50
2018-08-03T17:20:31.174Z,50.10
2018-08-03T17:23:00.115Z,50.20
2018-08-03T17:25:29.038Z,51.00
2018-08-03T17:27:57.993Z,51.60
2018-08-03T17:30:26.806Z,50.70
2018-08-03T17:32:55.697Z,51.00
2018-08-03T17:35:24.580Z,51.50
2018-08-03T17:37:53.489Z,54.00
2018-08-03T17:40:22.666Z,51.50
2018-08-03T17:42:51.609Z,54.10
2018-08-03T17:45:20.447Z,55.90
2018-08-03T17:47:49.326Z,57.90
2018-08-03T17:50:18.213Z,59.10
2018-08-03T17:52:47.575Z,58.10
2018-08-03T17:55:16.880Z,56.90
2018-08-03T17:57:45.926Z,56.30
2018-08-03T18:00:14.798Z,60.60
2018-08-03T18:02:43.906Z,62.20
2018-08-03T18:05:12.793Z,63.60
2018-08-03T18:07:41.674Z,64.80
2018-08-03T18:10:10.574Z,65.60
2018-08-03T18:12:39.477Z,65.70
2018-08-03T18:15:08.959Z,66.40
2018-08-03T18:17:37.847Z,66.70
2018-08-03T18:20:07.342Z,67.10
2018-08-03T18:22:36.430Z,67.20
2018-08-03T18:25:05.323Z,67.40
2018-08-03T18:27:34.374Z,67.70
2018-08-03T18:30:03.291Z,68.00
2018-08-03T18:32:32.217Z,68.20
2018-08-03T18:35:01.078Z,68.50
2018-08-03T18:37:30.000Z,68.50
2018-08-03T18:39:58.915Z,68.70
2018-08-03T18:42:27.804Z,68.90
2018-08-03T18:44:56.705Z,69.00
2018-08-03T18:47:25.622Z,69.30
2018-08-03T18:49:54.511Z,70.20
2018-08-03T18:52:23.493Z,70.40
2018-08-03T18:54:52.299Z,71.10
2018-08-03T18:57:21.158Z,71.60
2018-08-03T18:59:50.051Z,71.90
2018-08-03T19:02:18.938Z,72.20
2018-08-03T19:04:47.831Z,72.70
2018-08-03T19:07:16.718Z,73.10
2018-08-03T19:09:45.607Z,73.30
2018-08-03T19:12:14.490Z,73.80
2018-08-03T19:14:43.507Z,73.60
2018-08-03T19:17:12.420Z,74.00
2018-08-03T19:19:41.570Z,74.70
2018-08-03T19:22:10.463Z,75.00
2018-08-03T19:24:39.346Z,75.10
2018-08-03T19:27:08.293Z,75.30
2018-08-03T19:29:37.278Z,75.50
2018-08-03T19:32:06.236Z,75.70
2018-08-03T19:34:35.631Z,76.10
2018-08-03T19:37:04.698Z,76.50
2018-08-03T19:39:33.651Z,77.70
2018-08-03T19:42:02.574Z,77.80
2018-08-03T19:44:31.469Z,77.90
2018-08-03T19:47:00.355Z,78.00
2018-08-03T19:49:29.259Z,78.90
2018-08-03T19:51:58.131Z,78.10
2018-08-03T19:54:27.025Z,78.30
2018-08-03T19:56:55.910Z,78.10
2018-08-03T19:59:25.244Z,78.50
2018-08-03T20:01:54.075Z,78.90
2018-08-03T20:04:22.967Z,78.30
2018-08-03T20:06:51.852Z,78.80
2018-08-03T20:09:20.732Z,78.60
2018-08-03T20:11:49.611Z,79.10
2018-08-03T20:14:18.495Z,79.10
2018-08-03T20:16:47.377Z,78.90
2018-08-03T20:19:16.266Z,79.30
2018-08-03T20:21:45.155Z,79.50
2018-08-03T20:24:14.120Z,80.10
2018-08-03T20:26:43.002Z,79.80
2018-08-03T20:31:40.426Z,80.40
2018-08-03T20:34:09.339Z,80.30
2018-08-03T20:36:38.216Z,80.50
2018-08-03T20:39:08.415Z,81.20
2018-08-03T20:41:37.247Z,81.50
2018-08-03T20:44:06.186Z,81.50
2018-08-03T20:46:35.081Z,82.30
2018-08-03T20:49:04.016Z,81.90
2018-08-03T20:51:32.899Z,82.10
2018-08-03T20:54:01.782Z,82.30
2018-08-03T20:56:30.691Z,81.80
2018-08-03T20:58:59.571Z,81.80
2018-08-03T21:01:28.467Z,82.00
2018-08-03T21:03:57.351Z,82.20
2018-08-03T21:06:26.242Z,82.20
2018-08-03T21:08:55.202Z,83.10
2018-08-03T21:11:24.379Z,82.70
2018-08-03T21:13:54.354Z,83.20
2018-08-03T21:16:23.226Z,83.60
2018-08-03T21:18:52.122Z,83.70
2018-08-03T21:21:21.010Z,84.60
2018-08-03T21:26:18.674Z,83.90
2018-08-03T21:28:47.552Z,84.30
2018-08-03T21:31:16.458Z,84.30
2018-08-03T21:36:13.930Z,87.40
2018-08-03T21:38:42.814Z,87.10
2018-08-03T21:41:11.706Z,87.20
2018-08-03T21:43:40.625Z,88.10
2018-08-03T21:46:09.524Z,89.00
2018-08-03T21:48:38.405Z,90.20
2018-08-03T21:51:07.726Z,90.70
2018-08-03T21:53:36.963Z,90.10
2018-08-03T21:56:06.117Z,90.20
2018-08-03T21:58:34.992Z,90.70
2018-08-03T22:01:03.885Z,91.30
2018-08-03T22:03:32.751Z,91.20
2018-08-03T22:06:01.643Z,91.80
2018-08-03T22:08:30.513Z,91.70
2018-08-03T22:10:59.502Z,92.00
2018-08-03T22:13:28.375Z,91.90
2018-08-03T22:15:57.259Z,92.60
2018-08-03T22:18:26.187Z,93.20
2018-08-03T22:20:55.131Z,93.60
2018-08-03T22:23:24.018Z,93.90
2018-08-03T22:25:52.998Z,94.70
2018-08-03T22:28:21.878Z,94.60
2018-08-03T22:30:51.020Z,96.00
2018-08-03T22:33:19.931Z,94.80
2018-08-03T22:35:48.837Z,95.10
2018-08-03T22:38:17.754Z,95.50
2018-08-03T22:40:46.650Z,97.10
2018-08-03T22:43:15.535Z,95.30
2018-08-03T22:45:44.424Z,95.00
2018-08-03T22:48:13.313Z,97.00
2018-08-03T22:50:42.219Z,97.80
2018-08-03T22:53:11.101Z,97.40
2018-08-03T22:55:39.999Z,97.80
2018-08-03T22:58:08.878Z,99.10
2018-08-03T23:00:37.776Z,99.90
2018-08-03T23:03:06.643Z,97.90
2018-08-03T23:05:35.774Z,96.90
2018-08-03T23:08:04.699Z,97.00
2018-08-03T23:10:33.558Z,96.80
2018-08-03T23:13:02.458Z,96.90
2018-08-03T23:15:31.333Z,96.50
2018-08-03T23:18:00.243Z,96.20
2018-08-03T23:22:57.735Z,96.30
2018-08-03T23:25:26.594Z,96.20
2018-08-03T23:27:55.477Z,96.60
2018-08-03T23:30:24.362Z,96.70
2018-08-03T23:32:53.294Z,96.70
2018-08-03T23:35:22.267Z,96.70
2018-08-03T23:37:51.168Z,97.00
2018-08-03T23:40:20.041Z,97.30
2018-08-03T23:42:49.034Z,97.30
2018-08-03T23:45:17.922Z,97.50
2018-08-03T23:47:46.813Z,97.90
2018-08-03T23:50:17.260Z,97.80
2018-08-03T23:52:47.997Z,97.90
2018-08-03T23:55:16.927Z,98.00
2018-08-03T23:57:46.186Z,97.80
